VIR48WE CYYZ-EGLL
Flight info
| Callsign | VIR48WE |
|---|---|
| Flight time | 6h 16m |
| Altitude | 37000 |
| Route | OLABA DCT ATENE Q907 MIILS DCT NICSO/M085F370 DCT 48N050W 50N040W 52N030W 54N020W DCT DOGAL/N0489F370 DCT BEXET DCT BOFUM Q37 MALUD Q38 NUGRA |
| Aircraft | A35K/H-SDE2E3GHIJ3J4J5LM1ORWXY/LB1D1 |
Departure
| Time | 2026-05-05 12:49 |
|---|---|
| Airport | Toronto Pearson International Airport (CYYZ) |
Arrival
| Time | 2026-05-05 19:05 |
|---|---|
| Airport | London Heathrow Airport (EGLL) |
| Time | Latitude | Longitude | Altitude | Speed | Heading |
|---|---|---|---|---|---|
| 2026-05-05 12:26 | 43.68261 | -79.61942 | 574 ft | 0 kts | 280° |
| 2026-05-05 12:38 | 43.68259 | -79.61927 | 567 ft | 3 kts | 280° |
| 2026-05-05 12:38 | 43.68255 | -79.61901 | 574 ft | 3 kts | 280° |
| 2026-05-05 12:38 | 43.68252 | -79.61876 | 570 ft | 3 kts | 280° |
| 2026-05-05 12:39 | 43.68248 | -79.61851 | 572 ft | 3 kts | 270° |
| 2026-05-05 12:39 | 43.68252 | -79.61824 | 572 ft | 3 kts | 235° |
| 2026-05-05 12:39 | 43.68265 | -79.61805 | 572 ft | 3 kts | 201° |
| 2026-05-05 12:39 | 43.68267 | -79.61804 | 572 ft | 0 kts | 201° |
| 2026-05-05 12:42 | 43.68266 | -79.61805 | 572 ft | 1 kts | 201° |
| 2026-05-05 12:42 | 43.68260 | -79.61808 | 574 ft | 2 kts | 199° |
| 2026-05-05 12:42 | 43.68239 | -79.61812 | 576 ft | 4 kts | 185° |
| 2026-05-05 12:43 | 43.68207 | -79.61816 | 576 ft | 10 kts | 185° |
| 2026-05-05 12:43 | 43.68121 | -79.61875 | 574 ft | 18 kts | 225° |
| 2026-05-05 12:43 | 43.67985 | -79.62007 | 575 ft | 17 kts | 218° |
| 2026-05-05 12:43 | 43.67998 | -79.62131 | 575 ft | 15 kts | 312° |
| 2026-05-05 12:44 | 43.68074 | -79.62233 | 574 ft | 16 kts | 316° |
| 2026-05-05 12:44 | 43.68157 | -79.62344 | 574 ft | 17 kts | 316° |
| 2026-05-05 12:44 | 43.68218 | -79.62421 | 574 ft | 18 kts | 320° |
| 2026-05-05 12:44 | 43.68316 | -79.62535 | 575 ft | 19 kts | 316° |
| 2026-05-05 12:45 | 43.68412 | -79.62664 | 574 ft | 20 kts | 316° |
| 2026-05-05 12:45 | 43.68516 | -79.62800 | 575 ft | 21 kts | 317° |
| 2026-05-05 12:45 | 43.68663 | -79.62989 | 572 ft | 22 kts | 316° |
| 2026-05-05 12:45 | 43.68739 | -79.63088 | 576 ft | 23 kts | 316° |
| 2026-05-05 12:46 | 43.68857 | -79.63242 | 574 ft | 24 kts | 316° |
| 2026-05-05 12:46 | 43.68970 | -79.63391 | 574 ft | 21 kts | 315° |
| 2026-05-05 12:46 | 43.69062 | -79.63511 | 576 ft | 13 kts | 324° |
| 2026-05-05 12:46 | 43.69138 | -79.63493 | 578 ft | 12 kts | 40° |
| 2026-05-05 12:47 | 43.69213 | -79.63429 | 579 ft | 14 kts | 15° |
| 2026-05-05 12:47 | 43.69318 | -79.63418 | 575 ft | 16 kts | 359° |
| 2026-05-05 12:47 | 43.69396 | -79.63507 | 575 ft | 14 kts | 277° |
| 2026-05-05 12:47 | 43.69364 | -79.63583 | 572 ft | 0 kts | 225° |
| 2026-05-05 12:48 | 43.69361 | -79.63587 | 574 ft | 4 kts | 225° |
| 2026-05-05 12:48 | 43.69259 | -79.63732 | 575 ft | 50 kts | 226° |
| 2026-05-05 12:48 | 43.68871 | -79.64297 | 576 ft | 110 kts | 227° |
| 2026-05-05 12:48 | 43.68217 | -79.65246 | 586 ft | 160 kts | 226° |
| 2026-05-05 12:49 | 43.67467 | -79.66292 | 1290 ft | 150 kts | 226° |
| 2026-05-05 12:49 | 43.66726 | -79.67306 | 1906 ft | 153 kts | 229° |
| 2026-05-05 12:49 | 43.65984 | -79.68499 | 2212 ft | 173 kts | 238° |
| 2026-05-05 12:49 | 43.65276 | -79.69909 | 2621 ft | 188 kts | 238° |
| 2026-05-05 12:50 | 43.64499 | -79.71446 | 3043 ft | 203 kts | 237° |
| 2026-05-05 12:50 | 43.63473 | -79.72930 | 3362 ft | 228 kts | 221° |
| 2026-05-05 12:50 | 43.61960 | -79.73845 | 3794 ft | 252 kts | 192° |
| 2026-05-05 12:50 | 43.60216 | -79.73361 | 4610 ft | 265 kts | 157° |
| 2026-05-05 12:51 | 43.58674 | -79.71898 | 5370 ft | 274 kts | 149° |
| 2026-05-05 12:51 | 43.57214 | -79.70155 | 6101 ft | 281 kts | 143° |
| 2026-05-05 12:51 | 43.55858 | -79.68169 | 6845 ft | 289 kts | 137° |
| 2026-05-05 12:51 | 43.54597 | -79.65977 | 7571 ft | 294 kts | 136° |
| 2026-05-05 12:52 | 43.53211 | -79.63899 | 8306 ft | 296 kts | 142° |
| 2026-05-05 12:52 | 43.51796 | -79.61786 | 9036 ft | 306 kts | 136° |
| 2026-05-05 12:52 | 43.50794 | -79.59122 | 9725 ft | 323 kts | 109° |
| 2026-05-05 12:52 | 43.50614 | -79.55949 | 10131 ft | 347 kts | 82° |
| 2026-05-05 12:53 | 43.51204 | -79.52633 | 10476 ft | 366 kts | 73° |
| 2026-05-05 12:53 | 43.51956 | -79.49182 | 10818 ft | 385 kts | 73° |
| 2026-05-05 12:53 | 43.52715 | -79.45561 | 11146 ft | 403 kts | 74° |
| 2026-05-05 12:53 | 43.53478 | -79.41771 | 11472 ft | 419 kts | 74° |
| 2026-05-05 12:54 | 43.55247 | -79.33970 | 12660 ft | 434 kts | 72° |
| 2026-05-05 12:54 | 43.56154 | -79.30029 | 13351 ft | 438 kts | 72° |
| 2026-05-05 12:54 | 43.57069 | -79.25998 | 13969 ft | 443 kts | 73° |
| 2026-05-05 12:55 | 43.57986 | -79.21928 | 14628 ft | 447 kts | 73° |
| 2026-05-05 12:55 | 43.58908 | -79.17805 | 15291 ft | 451 kts | 73° |
| 2026-05-05 12:55 | 43.59834 | -79.13653 | 15921 ft | 455 kts | 73° |
| 2026-05-05 12:55 | 43.60765 | -79.09463 | 16565 ft | 458 kts | 73° |
| 2026-05-05 12:56 | 43.61701 | -79.05237 | 17198 ft | 463 kts | 73° |
| 2026-05-05 12:56 | 43.62645 | -79.00970 | 17841 ft | 467 kts | 73° |
| 2026-05-05 12:56 | 43.63596 | -78.96661 | 18393 ft | 471 kts | 73° |
| 2026-05-05 12:56 | 43.64551 | -78.92323 | 18949 ft | 474 kts | 73° |
| 2026-05-05 12:57 | 43.65512 | -78.87946 | 19539 ft | 478 kts | 73° |
| 2026-05-05 12:57 | 43.66478 | -78.83540 | 20146 ft | 481 kts | 73° |
| 2026-05-05 12:57 | 43.67450 | -78.79099 | 20755 ft | 485 kts | 73° |
| 2026-05-05 12:57 | 43.68430 | -78.74616 | 21326 ft | 490 kts | 73° |
| 2026-05-05 12:58 | 43.69554 | -78.70196 | 21898 ft | 494 kts | 68° |
| 2026-05-05 12:58 | 43.70886 | -78.65781 | 22536 ft | 497 kts | 66° |
| 2026-05-05 12:58 | 43.72246 | -78.61384 | 23257 ft | 498 kts | 66° |
| 2026-05-05 12:58 | 43.73612 | -78.56961 | 23737 ft | 502 kts | 67° |
| 2026-05-05 12:59 | 43.74985 | -78.52498 | 24197 ft | 507 kts | 67° |
| 2026-05-05 12:59 | 43.76371 | -78.47984 | 24673 ft | 511 kts | 67° |
| 2026-05-05 12:59 | 43.77761 | -78.43443 | 25157 ft | 515 kts | 67° |
| 2026-05-05 13:00 | 43.80575 | -78.34224 | 26099 ft | 523 kts | 68° |
| 2026-05-05 13:00 | 43.81971 | -78.29636 | 26570 ft | 527 kts | 68° |
| 2026-05-05 13:01 | 43.86299 | -78.15365 | 27849 ft | 541 kts | 68° |
| 2026-05-05 13:01 | 43.87755 | -78.10542 | 28314 ft | 544 kts | 68° |
| 2026-05-05 13:01 | 43.89220 | -78.05685 | 28742 ft | 547 kts | 68° |
| 2026-05-05 13:01 | 43.90692 | -78.00794 | 29147 ft | 551 kts | 68° |
| 2026-05-05 13:02 | 43.92170 | -77.95874 | 29570 ft | 553 kts | 68° |
| 2026-05-05 13:02 | 43.93644 | -77.90959 | 30144 ft | 550 kts | 69° |
| 2026-05-05 13:02 | 43.95108 | -77.86066 | 30675 ft | 549 kts | 69° |
| 2026-05-05 13:02 | 43.96574 | -77.81157 | 31086 ft | 550 kts | 69° |
| 2026-05-05 13:03 | 43.98038 | -77.76245 | 31433 ft | 551 kts | 69° |
| 2026-05-05 13:03 | 43.99488 | -77.71374 | 31840 ft | 551 kts | 68° |
| 2026-05-05 13:03 | 44.00947 | -77.66460 | 32254 ft | 551 kts | 68° |
| 2026-05-05 13:03 | 44.02404 | -77.61542 | 32667 ft | 550 kts | 68° |
| 2026-05-05 13:04 | 44.03861 | -77.56617 | 33042 ft | 550 kts | 68° |
| 2026-05-05 13:04 | 44.05313 | -77.51697 | 33453 ft | 549 kts | 68° |
| 2026-05-05 13:04 | 44.06762 | -77.46778 | 33788 ft | 550 kts | 68° |
| 2026-05-05 13:04 | 44.08210 | -77.41864 | 34092 ft | 550 kts | 68° |
| 2026-05-05 13:05 | 44.09776 | -77.36981 | 34240 ft | 553 kts | 64° |
| 2026-05-05 13:05 | 44.11418 | -77.32113 | 34364 ft | 557 kts | 64° |
| 2026-05-05 13:05 | 44.13065 | -77.27213 | 34466 ft | 561 kts | 64° |
| 2026-05-05 13:05 | 44.14709 | -77.22279 | 34600 ft | 563 kts | 65° |
| 2026-05-05 13:06 | 44.16344 | -77.17336 | 34863 ft | 561 kts | 65° |
| 2026-05-05 13:06 | 44.17966 | -77.12410 | 35145 ft | 559 kts | 65° |
| 2026-05-05 13:06 | 44.19583 | -77.07485 | 35368 ft | 559 kts | 65° |
| 2026-05-05 13:06 | 44.21197 | -77.02554 | 35568 ft | 559 kts | 65° |
| 2026-05-05 13:07 | 44.22807 | -76.97624 | 35785 ft | 559 kts | 65° |
| 2026-05-05 13:07 | 44.24414 | -76.92695 | 36037 ft | 558 kts | 64° |
| 2026-05-05 13:07 | 44.26023 | -76.87747 | 36208 ft | 559 kts | 65° |
| 2026-05-05 13:07 | 44.27627 | -76.82806 | 36362 ft | 559 kts | 65° |
| 2026-05-05 13:08 | 44.29206 | -76.77933 | 36629 ft | 557 kts | 65° |
| 2026-05-05 13:08 | 44.30798 | -76.73012 | 36662 ft | 555 kts | 65° |
| 2026-05-05 13:08 | 44.33966 | -76.63188 | 36660 ft | 555 kts | 65° |
| 2026-05-05 13:09 | 44.37127 | -76.53350 | 36661 ft | 555 kts | 65° |
| 2026-05-05 13:09 | 44.40279 | -76.43504 | 36659 ft | 555 kts | 65° |
| 2026-05-05 13:10 | 44.43433 | -76.33615 | 36656 ft | 555 kts | 65° |
| 2026-05-05 13:10 | 44.46564 | -76.23759 | 36655 ft | 553 kts | 65° |
| 2026-05-05 13:11 | 44.49716 | -76.13939 | 36650 ft | 553 kts | 64° |
| 2026-05-05 13:11 | 44.52958 | -76.04187 | 36666 ft | 553 kts | 64° |
| 2026-05-05 13:12 | 44.56211 | -75.94404 | 36643 ft | 554 kts | 64° |
| 2026-05-05 13:12 | 44.59438 | -75.84607 | 36636 ft | 553 kts | 65° |
| 2026-05-05 13:13 | 44.62621 | -75.74870 | 36632 ft | 552 kts | 65° |
| 2026-05-05 13:13 | 44.65816 | -75.65060 | 36630 ft | 552 kts | 65° |
| 2026-05-05 13:14 | 44.69009 | -75.55221 | 36629 ft | 554 kts | 65° |
| 2026-05-05 13:14 | 44.72209 | -75.45324 | 36611 ft | 555 kts | 65° |
| 2026-05-05 13:15 | 44.75391 | -75.35446 | 36632 ft | 554 kts | 65° |
| 2026-05-05 13:15 | 44.78562 | -75.25566 | 36636 ft | 554 kts | 66° |
| 2026-05-05 13:16 | 44.81723 | -75.15679 | 36650 ft | 554 kts | 66° |
| 2026-05-05 13:16 | 44.84862 | -75.05820 | 36654 ft | 555 kts | 66° |
| 2026-05-05 13:17 | 44.88013 | -74.95892 | 36658 ft | 555 kts | 66° |
| 2026-05-05 13:17 | 44.91150 | -74.85964 | 36657 ft | 554 kts | 66° |
| 2026-05-05 13:18 | 44.94279 | -74.76027 | 36655 ft | 554 kts | 66° |
| 2026-05-05 13:18 | 44.97404 | -74.66064 | 36653 ft | 555 kts | 66° |
| 2026-05-05 13:19 | 45.00504 | -74.56143 | 36653 ft | 555 kts | 66° |
| 2026-05-05 13:19 | 45.03614 | -74.46148 | 36656 ft | 555 kts | 66° |
| 2026-05-05 13:20 | 45.06710 | -74.36164 | 36655 ft | 554 kts | 66° |
| 2026-05-05 13:20 | 45.09798 | -74.26164 | 36653 ft | 554 kts | 66° |
| 2026-05-05 13:21 | 45.12879 | -74.16150 | 36652 ft | 556 kts | 66° |
| 2026-05-05 13:21 | 45.15958 | -74.06101 | 36650 ft | 556 kts | 66° |
| 2026-05-05 13:22 | 45.19004 | -73.96119 | 36649 ft | 556 kts | 66° |
| 2026-05-05 13:22 | 45.22068 | -73.86041 | 36667 ft | 556 kts | 66° |
| 2026-05-05 13:23 | 45.25118 | -73.75967 | 36646 ft | 557 kts | 66° |
| 2026-05-05 13:23 | 45.28166 | -73.65860 | 36648 ft | 557 kts | 66° |
| 2026-05-05 13:24 | 45.31206 | -73.55741 | 36645 ft | 557 kts | 66° |
| 2026-05-05 13:24 | 45.34236 | -73.45613 | 36654 ft | 557 kts | 66° |
| 2026-05-05 13:25 | 45.37259 | -73.35468 | 36658 ft | 557 kts | 66° |
| 2026-05-05 13:25 | 45.40256 | -73.25371 | 36657 ft | 557 kts | 66° |
| 2026-05-05 13:26 | 45.43264 | -73.15194 | 36660 ft | 557 kts | 66° |
| 2026-05-05 13:26 | 45.46264 | -73.05003 | 36651 ft | 557 kts | 66° |
| 2026-05-05 13:27 | 45.49249 | -72.94820 | 36674 ft | 556 kts | 66° |
| 2026-05-05 13:27 | 45.52222 | -72.84639 | 36673 ft | 556 kts | 66° |
| 2026-05-05 13:28 | 45.55184 | -72.74452 | 36679 ft | 556 kts | 66° |
| 2026-05-05 13:28 | 45.58135 | -72.64261 | 36680 ft | 556 kts | 66° |
| 2026-05-05 13:29 | 45.61078 | -72.54058 | 36673 ft | 555 kts | 66° |
| 2026-05-05 13:29 | 45.63987 | -72.43929 | 36686 ft | 554 kts | 66° |
| 2026-05-05 13:30 | 45.66900 | -72.33744 | 36691 ft | 554 kts | 67° |
| 2026-05-05 13:30 | 45.69808 | -72.23533 | 36689 ft | 554 kts | 67° |
| 2026-05-05 13:31 | 45.72707 | -72.13315 | 36696 ft | 554 kts | 67° |
| 2026-05-05 13:31 | 45.75596 | -72.03085 | 36713 ft | 554 kts | 67° |
| 2026-05-05 13:32 | 45.78471 | -71.92862 | 36704 ft | 553 kts | 67° |
| 2026-05-05 13:32 | 45.80851 | -71.84366 | 36704 ft | 553 kts | 67° |
| 2026-05-05 13:33 | 45.83712 | -71.74118 | 36707 ft | 553 kts | 67° |
| 2026-05-05 13:33 | 45.87026 | -71.62195 | 36708 ft | 553 kts | 67° |
| 2026-05-05 13:34 | 45.89405 | -71.53594 | 36693 ft | 553 kts | 67° |
| 2026-05-05 13:34 | 45.92227 | -71.43352 | 36706 ft | 551 kts | 67° |
| 2026-05-05 13:35 | 45.95034 | -71.33122 | 36709 ft | 550 kts | 67° |
| 2026-05-05 13:35 | 45.97832 | -71.22884 | 36706 ft | 550 kts | 67° |
| 2026-05-05 13:36 | 46.00601 | -71.12705 | 36709 ft | 550 kts | 67° |
| 2026-05-05 13:36 | 46.03384 | -71.02432 | 36694 ft | 551 kts | 67° |
| 2026-05-05 13:37 | 46.06155 | -70.92162 | 36706 ft | 550 kts | 68° |
| 2026-05-05 13:37 | 46.08913 | -70.81891 | 36701 ft | 550 kts | 68° |
| 2026-05-05 13:38 | 46.11662 | -70.71611 | 36710 ft | 550 kts | 68° |
| 2026-05-05 13:38 | 46.14403 | -70.61317 | 36715 ft | 550 kts | 68° |
| 2026-05-05 13:39 | 46.17136 | -70.51008 | 36695 ft | 550 kts | 68° |
| 2026-05-05 13:39 | 46.19856 | -70.40702 | 36705 ft | 549 kts | 68° |
| 2026-05-05 13:40 | 46.22563 | -70.30401 | 36707 ft | 548 kts | 68° |
| 2026-05-05 13:40 | 46.25188 | -70.20058 | 36706 ft | 549 kts | 71° |
| 2026-05-05 13:41 | 46.27390 | -70.09568 | 36717 ft | 549 kts | 72° |
| 2026-05-05 13:41 | 46.29534 | -69.98947 | 36699 ft | 550 kts | 72° |
| 2026-05-05 13:42 | 46.31727 | -69.88347 | 36712 ft | 550 kts | 71° |
| 2026-05-05 13:42 | 46.33949 | -69.77752 | 36709 ft | 550 kts | 71° |
| 2026-05-05 13:43 | 46.36172 | -69.67140 | 36713 ft | 550 kts | 71° |
| 2026-05-05 13:43 | 46.38381 | -69.56528 | 36715 ft | 550 kts | 71° |
| 2026-05-05 13:44 | 46.40578 | -69.45909 | 36718 ft | 550 kts | 71° |
| 2026-05-05 13:44 | 46.42757 | -69.35317 | 36716 ft | 548 kts | 71° |
| 2026-05-05 13:45 | 46.44911 | -69.24795 | 36716 ft | 547 kts | 71° |
| 2026-05-05 13:45 | 46.47067 | -69.14207 | 36716 ft | 547 kts | 71° |
| 2026-05-05 13:46 | 46.49215 | -69.03597 | 36730 ft | 547 kts | 71° |
| 2026-05-05 13:46 | 46.51352 | -68.92989 | 36711 ft | 547 kts | 72° |
| 2026-05-05 13:47 | 46.53481 | -68.82364 | 36720 ft | 548 kts | 72° |
| 2026-05-05 13:47 | 46.55602 | -68.71718 | 36730 ft | 548 kts | 72° |
| 2026-05-05 13:48 | 46.57710 | -68.61080 | 36719 ft | 548 kts | 72° |
| 2026-05-05 13:48 | 46.59812 | -68.50416 | 36761 ft | 548 kts | 72° |
| 2026-05-05 13:49 | 46.61888 | -68.39825 | 36746 ft | 548 kts | 72° |
| 2026-05-05 13:49 | 46.63966 | -68.29167 | 36762 ft | 548 kts | 72° |
| 2026-05-05 13:50 | 46.66034 | -68.18498 | 36779 ft | 548 kts | 72° |
| 2026-05-05 13:50 | 46.68093 | -68.07820 | 36779 ft | 548 kts | 72° |
| 2026-05-05 13:51 | 46.70141 | -67.97137 | 36751 ft | 547 kts | 72° |
| 2026-05-05 13:51 | 46.72176 | -67.86460 | 36766 ft | 545 kts | 72° |
| 2026-05-05 13:52 | 46.74198 | -67.75801 | 36763 ft | 545 kts | 72° |
| 2026-05-05 13:52 | 46.76208 | -67.65155 | 36755 ft | 545 kts | 72° |
| 2026-05-05 13:53 | 46.78194 | -67.54560 | 36758 ft | 545 kts | 73° |
| 2026-05-05 13:53 | 46.80183 | -67.43893 | 36764 ft | 544 kts | 73° |
| 2026-05-05 13:54 | 46.82156 | -67.33246 | 36764 ft | 542 kts | 73° |
| 2026-05-05 13:54 | 46.84116 | -67.22617 | 36771 ft | 542 kts | 73° |
| 2026-05-05 13:55 | 46.86065 | -67.11987 | 36759 ft | 542 kts | 73° |
| 2026-05-05 13:55 | 46.87731 | -67.01224 | 36768 ft | 543 kts | 78° |
| 2026-05-05 13:56 | 46.88962 | -66.90320 | 36764 ft | 543 kts | 79° |
| 2026-05-05 13:56 | 46.90114 | -66.79422 | 36775 ft | 542 kts | 79° |
| 2026-05-05 13:57 | 46.91245 | -66.68596 | 36775 ft | 542 kts | 79° |
| 2026-05-05 13:57 | 46.92381 | -66.57700 | 36780 ft | 542 kts | 79° |
| 2026-05-05 13:58 | 46.93512 | -66.46794 | 36778 ft | 542 kts | 79° |
| 2026-05-05 13:58 | 46.94633 | -66.35881 | 36779 ft | 542 kts | 79° |
| 2026-05-05 13:59 | 46.96298 | -66.19480 | 36791 ft | 542 kts | 79° |
| 2026-05-05 14:00 | 46.97754 | -66.04939 | 36798 ft | 542 kts | 80° |
| 2026-05-05 14:00 | 46.99012 | -65.92204 | 36785 ft | 543 kts | 80° |
| 2026-05-05 14:01 | 47.00081 | -65.81265 | 36791 ft | 542 kts | 80° |
| 2026-05-05 14:01 | 47.01139 | -65.70329 | 36794 ft | 542 kts | 80° |
| 2026-05-05 14:02 | 47.02187 | -65.59392 | 36798 ft | 542 kts | 80° |
| 2026-05-05 14:02 | 47.03225 | -65.48445 | 36804 ft | 542 kts | 80° |
| 2026-05-05 14:03 | 47.04251 | -65.37499 | 36807 ft | 541 kts | 80° |
| 2026-05-05 14:03 | 47.05264 | -65.26578 | 36800 ft | 540 kts | 80° |
| 2026-05-05 14:04 | 47.06261 | -65.15728 | 36805 ft | 540 kts | 80° |
| 2026-05-05 14:04 | 47.07253 | -65.04806 | 36815 ft | 540 kts | 80° |
| 2026-05-05 14:05 | 47.08234 | -64.93890 | 36806 ft | 540 kts | 80° |
| 2026-05-05 14:05 | 47.09205 | -64.82966 | 36812 ft | 540 kts | 80° |
| 2026-05-05 14:06 | 47.10167 | -64.72024 | 36809 ft | 540 kts | 80° |
| 2026-05-05 14:06 | 47.11114 | -64.61127 | 36821 ft | 542 kts | 80° |
| 2026-05-05 14:07 | 47.12058 | -64.50149 | 36817 ft | 543 kts | 81° |
| 2026-05-05 14:07 | 47.12993 | -64.39129 | 36826 ft | 544 kts | 81° |
| 2026-05-05 14:08 | 47.13919 | -64.28102 | 36823 ft | 544 kts | 81° |
| 2026-05-05 14:08 | 47.14835 | -64.17064 | 36822 ft | 544 kts | 81° |
| 2026-05-05 14:09 | 47.15739 | -64.06031 | 36829 ft | 544 kts | 81° |
| 2026-05-05 14:09 | 47.16634 | -63.94983 | 36834 ft | 545 kts | 81° |
| 2026-05-05 14:10 | 47.17520 | -63.83905 | 36835 ft | 546 kts | 81° |
| 2026-05-05 14:10 | 47.18396 | -63.72817 | 36835 ft | 546 kts | 81° |
| 2026-05-05 14:11 | 47.19261 | -63.61732 | 36840 ft | 546 kts | 81° |
| 2026-05-05 14:11 | 47.20109 | -63.50714 | 36838 ft | 546 kts | 81° |
| 2026-05-05 14:12 | 47.20954 | -63.39604 | 36849 ft | 546 kts | 81° |
| 2026-05-05 14:12 | 47.21787 | -63.28511 | 36873 ft | 546 kts | 81° |
| 2026-05-05 14:13 | 47.22608 | -63.17412 | 36854 ft | 546 kts | 81° |
| 2026-05-05 14:13 | 47.23419 | -63.06315 | 36867 ft | 545 kts | 81° |
| 2026-05-05 14:14 | 47.24220 | -62.95211 | 36863 ft | 545 kts | 81° |
| 2026-05-05 14:14 | 47.25005 | -62.84168 | 36867 ft | 545 kts | 82° |
| 2026-05-05 14:15 | 47.25784 | -62.73061 | 36865 ft | 545 kts | 82° |
| 2026-05-05 14:15 | 47.26552 | -62.61945 | 36866 ft | 545 kts | 82° |
| 2026-05-05 14:16 | 47.27309 | -62.50832 | 36884 ft | 545 kts | 82° |
| 2026-05-05 14:16 | 47.28056 | -62.39719 | 36875 ft | 545 kts | 82° |
| 2026-05-05 14:17 | 47.28792 | -62.28590 | 36873 ft | 545 kts | 82° |
| 2026-05-05 14:17 | 47.29517 | -62.17469 | 36876 ft | 545 kts | 82° |
| 2026-05-05 14:18 | 47.30226 | -62.06417 | 36894 ft | 545 kts | 82° |
| 2026-05-05 14:18 | 47.30931 | -61.95280 | 36891 ft | 545 kts | 82° |
| 2026-05-05 14:19 | 47.31623 | -61.84150 | 36886 ft | 546 kts | 82° |
| 2026-05-05 14:19 | 47.32307 | -61.72997 | 36880 ft | 547 kts | 82° |
| 2026-05-05 14:20 | 47.32867 | -61.63721 | 36882 ft | 547 kts | 83° |
| 2026-05-05 14:20 | 47.33531 | -61.52538 | 36884 ft | 547 kts | 83° |
| 2026-05-05 14:21 | 47.34184 | -61.41372 | 36891 ft | 547 kts | 83° |
| 2026-05-05 14:21 | 47.34827 | -61.30182 | 36896 ft | 548 kts | 83° |
| 2026-05-05 14:22 | 47.35459 | -61.18983 | 36901 ft | 548 kts | 83° |
| 2026-05-05 14:22 | 47.36081 | -61.07781 | 36900 ft | 548 kts | 83° |
| 2026-05-05 14:23 | 47.36692 | -60.96575 | 36903 ft | 548 kts | 83° |
| 2026-05-05 14:23 | 47.37292 | -60.85358 | 36909 ft | 549 kts | 83° |
| 2026-05-05 14:24 | 47.37879 | -60.74190 | 36909 ft | 549 kts | 83° |
| 2026-05-05 14:24 | 47.38458 | -60.62947 | 36912 ft | 549 kts | 83° |
| 2026-05-05 14:25 | 47.39027 | -60.51701 | 36915 ft | 549 kts | 83° |
| 2026-05-05 14:25 | 47.39584 | -60.40459 | 36922 ft | 550 kts | 83° |
| 2026-05-05 14:26 | 47.40134 | -60.29161 | 36917 ft | 552 kts | 83° |
| 2026-05-05 14:26 | 47.40667 | -60.17946 | 36924 ft | 552 kts | 84° |
| 2026-05-05 14:27 | 47.41194 | -60.06627 | 36915 ft | 552 kts | 84° |
| 2026-05-05 14:27 | 47.41710 | -59.95317 | 36922 ft | 552 kts | 84° |
| 2026-05-05 14:28 | 47.42215 | -59.83991 | 36931 ft | 552 kts | 84° |
| 2026-05-05 14:28 | 47.42709 | -59.72678 | 36930 ft | 552 kts | 84° |
| 2026-05-05 14:29 | 47.43189 | -59.61429 | 36937 ft | 551 kts | 84° |
| 2026-05-05 14:29 | 47.43659 | -59.50126 | 36939 ft | 551 kts | 84° |
| 2026-05-05 14:30 | 47.44119 | -59.38822 | 36936 ft | 551 kts | 84° |
| 2026-05-05 14:30 | 47.44567 | -59.27520 | 36944 ft | 551 kts | 84° |
| 2026-05-05 14:31 | 47.45005 | -59.16208 | 36941 ft | 551 kts | 84° |
| 2026-05-05 14:31 | 47.45431 | -59.04891 | 36946 ft | 551 kts | 84° |
| 2026-05-05 14:32 | 47.45846 | -58.93586 | 36941 ft | 551 kts | 85° |
| 2026-05-05 14:32 | 47.46250 | -58.82278 | 36941 ft | 551 kts | 85° |
| 2026-05-05 14:33 | 47.46640 | -58.71048 | 36939 ft | 551 kts | 85° |
| 2026-05-05 14:33 | 47.47021 | -58.59747 | 36944 ft | 550 kts | 85° |
| 2026-05-05 14:34 | 47.47392 | -58.48432 | 36941 ft | 551 kts | 85° |
| 2026-05-05 14:34 | 47.47752 | -58.37111 | 36944 ft | 551 kts | 85° |
| 2026-05-05 14:35 | 47.48100 | -58.25789 | 36958 ft | 551 kts | 86° |
| 2026-05-05 14:35 | 47.48437 | -58.14482 | 36946 ft | 550 kts | 86° |
| 2026-05-05 14:36 | 47.48762 | -58.03177 | 36944 ft | 550 kts | 86° |
| 2026-05-05 14:36 | 47.49077 | -57.91878 | 36934 ft | 550 kts | 86° |
| 2026-05-05 14:37 | 47.49378 | -57.80654 | 36939 ft | 549 kts | 86° |
| 2026-05-05 14:37 | 47.49670 | -57.69370 | 36939 ft | 549 kts | 86° |
| 2026-05-05 14:38 | 47.49950 | -57.58078 | 36944 ft | 549 kts | 86° |
| 2026-05-05 14:38 | 47.50220 | -57.46777 | 36939 ft | 549 kts | 87° |
| 2026-05-05 14:39 | 47.50479 | -57.35473 | 36946 ft | 550 kts | 87° |
| 2026-05-05 14:39 | 47.50727 | -57.24164 | 36944 ft | 549 kts | 87° |
| 2026-05-05 14:40 | 47.50964 | -57.12867 | 36949 ft | 549 kts | 87° |
| 2026-05-05 14:40 | 47.51187 | -57.01646 | 36949 ft | 549 kts | 88° |
| 2026-05-05 14:41 | 47.51402 | -56.90341 | 36923 ft | 550 kts | 88° |
| 2026-05-05 14:41 | 47.51606 | -56.79033 | 36923 ft | 550 kts | 88° |
| 2026-05-05 14:42 | 47.51798 | -56.67710 | 36900 ft | 551 kts | 88° |
| 2026-05-05 14:42 | 47.51979 | -56.56378 | 36895 ft | 551 kts | 88° |
| 2026-05-05 14:43 | 47.52150 | -56.45052 | 36895 ft | 551 kts | 88° |
| 2026-05-05 14:43 | 47.52309 | -56.33726 | 36872 ft | 551 kts | 89° |
| 2026-05-05 14:44 | 47.52457 | -56.22364 | 36873 ft | 552 kts | 89° |
| 2026-05-05 14:44 | 47.52594 | -56.11051 | 36856 ft | 552 kts | 89° |
| 2026-05-05 14:45 | 47.52720 | -55.99691 | 36851 ft | 552 kts | 89° |
| 2026-05-05 14:45 | 47.52834 | -55.88344 | 36844 ft | 551 kts | 89° |
| 2026-05-05 14:46 | 47.52937 | -55.76991 | 36859 ft | 552 kts | 89° |
| 2026-05-05 14:46 | 47.53029 | -55.65696 | 36858 ft | 552 kts | 89° |
| 2026-05-05 14:47 | 47.53110 | -55.54320 | 36885 ft | 552 kts | 89° |
| 2026-05-05 14:47 | 47.53180 | -55.42956 | 36888 ft | 552 kts | 89° |
| 2026-05-05 14:48 | 47.53239 | -55.31601 | 36911 ft | 552 kts | 90° |
| 2026-05-05 14:48 | 47.53286 | -55.20241 | 36917 ft | 552 kts | 90° |
| 2026-05-05 14:49 | 47.53323 | -55.08878 | 37120 ft | 552 kts | 90° |
| 2026-05-05 14:49 | 47.53337 | -55.03201 | 37321 ft | 551 kts | 90° |
| 2026-05-05 14:49 | 47.53348 | -54.97539 | 37499 ft | 551 kts | 90° |
| 2026-05-05 14:50 | 47.53356 | -54.91864 | 37699 ft | 550 kts | 90° |
| 2026-05-05 14:50 | 47.53362 | -54.86209 | 37850 ft | 550 kts | 90° |
| 2026-05-05 14:50 | 47.53364 | -54.80542 | 37984 ft | 550 kts | 90° |
| 2026-05-05 14:50 | 47.53364 | -54.74871 | 38137 ft | 551 kts | 90° |
| 2026-05-05 14:51 | 47.53361 | -54.69213 | 38264 ft | 550 kts | 91° |
| 2026-05-05 14:51 | 47.53356 | -54.63555 | 38446 ft | 549 kts | 91° |
| 2026-05-05 14:51 | 47.53348 | -54.57917 | 38666 ft | 547 kts | 91° |
| 2026-05-05 14:51 | 47.53336 | -54.52299 | 38799 ft | 546 kts | 91° |
| 2026-05-05 14:52 | 47.53306 | -54.41111 | 38924 ft | 547 kts | 91° |
| 2026-05-05 14:52 | 47.53264 | -54.29842 | 38924 ft | 548 kts | 91° |
| 2026-05-05 14:53 | 47.53212 | -54.18559 | 38939 ft | 548 kts | 91° |
| 2026-05-05 14:53 | 47.53148 | -54.07268 | 38925 ft | 548 kts | 91° |
| 2026-05-05 14:54 | 47.53073 | -53.96003 | 38933 ft | 548 kts | 91° |
| 2026-05-05 14:54 | 47.52988 | -53.84790 | 38935 ft | 548 kts | 91° |
| 2026-05-05 14:55 | 47.52891 | -53.73524 | 38934 ft | 548 kts | 91° |
| 2026-05-05 14:55 | 47.52784 | -53.62245 | 38939 ft | 548 kts | 92° |
| 2026-05-05 14:56 | 47.52665 | -53.50973 | 38942 ft | 548 kts | 92° |
| 2026-05-05 14:56 | 47.52535 | -53.39702 | 38946 ft | 548 kts | 92° |
| 2026-05-05 14:57 | 47.52394 | -53.28431 | 38953 ft | 548 kts | 92° |
| 2026-05-05 14:57 | 47.52242 | -53.17203 | 38934 ft | 548 kts | 92° |
| 2026-05-05 14:58 | 47.52079 | -53.05927 | 38929 ft | 548 kts | 92° |
| 2026-05-05 14:58 | 47.51905 | -52.94644 | 38935 ft | 548 kts | 92° |
| 2026-05-05 14:59 | 47.51720 | -52.83359 | 38924 ft | 548 kts | 92° |
| 2026-05-05 14:59 | 47.51525 | -52.72136 | 38931 ft | 549 kts | 92° |
| 2026-05-05 15:00 | 47.51351 | -52.62668 | 38929 ft | 550 kts | 92° |
| 2026-05-05 15:00 | 47.51097 | -52.49502 | 38966 ft | 550 kts | 93° |
| 2026-05-05 15:01 | 47.50867 | -52.38194 | 38954 ft | 549 kts | 93° |
| 2026-05-05 15:01 | 47.50627 | -52.26924 | 38970 ft | 548 kts | 93° |
| 2026-05-05 15:02 | 47.50376 | -52.15667 | 38972 ft | 547 kts | 93° |
| 2026-05-05 15:02 | 47.50225 | -52.04401 | 38990 ft | 548 kts | 87° |
| 2026-05-05 15:03 | 47.51763 | -51.93395 | 38994 ft | 548 kts | 71° |
| 2026-05-05 15:03 | 47.54369 | -51.82854 | 38996 ft | 549 kts | 69° |
| 2026-05-05 15:04 | 47.57140 | -51.72342 | 38997 ft | 549 kts | 68° |
| 2026-05-05 15:04 | 47.59897 | -51.61803 | 38990 ft | 549 kts | 69° |
| 2026-05-05 15:05 | 47.63991 | -51.45863 | 39010 ft | 552 kts | 69° |
| 2026-05-05 15:06 | 47.66703 | -51.35197 | 38999 ft | 553 kts | 69° |
| 2026-05-05 15:06 | 47.69405 | -51.24521 | 38999 ft | 553 kts | 69° |
| 2026-05-05 15:07 | 47.72100 | -51.13830 | 38996 ft | 553 kts | 69° |
| 2026-05-05 15:07 | 47.74785 | -51.03130 | 39012 ft | 553 kts | 69° |
| 2026-05-05 15:08 | 47.77460 | -50.92417 | 39011 ft | 553 kts | 70° |
| 2026-05-05 15:08 | 47.79677 | -50.83503 | 39006 ft | 553 kts | 70° |
| 2026-05-05 15:09 | 47.82334 | -50.72767 | 39009 ft | 553 kts | 70° |
| 2026-05-05 15:09 | 47.84986 | -50.62002 | 39009 ft | 554 kts | 70° |
| 2026-05-05 15:10 | 47.87614 | -50.51285 | 39004 ft | 554 kts | 70° |
| 2026-05-05 15:10 | 47.90249 | -50.40485 | 39005 ft | 554 kts | 70° |
| 2026-05-05 15:11 | 47.92874 | -50.29673 | 39015 ft | 554 kts | 70° |
| 2026-05-05 15:11 | 47.95489 | -50.18852 | 39012 ft | 554 kts | 71° |
| 2026-05-05 15:12 | 47.98076 | -50.08094 | 38994 ft | 554 kts | 71° |
| 2026-05-05 15:12 | 48.00671 | -49.97270 | 39018 ft | 554 kts | 70° |
| 2026-05-05 15:13 | 48.03369 | -49.86483 | 39018 ft | 554 kts | 70° |
| 2026-05-05 15:13 | 48.06103 | -49.75701 | 39015 ft | 555 kts | 70° |
| 2026-05-05 15:14 | 48.08818 | -49.64889 | 39010 ft | 556 kts | 70° |
| 2026-05-05 15:14 | 48.11516 | -49.54031 | 39018 ft | 556 kts | 70° |
| 2026-05-05 15:15 | 48.14197 | -49.43172 | 39017 ft | 556 kts | 70° |
| 2026-05-05 15:15 | 48.16854 | -49.32363 | 39015 ft | 556 kts | 70° |
| 2026-05-05 15:16 | 48.19520 | -49.21459 | 39024 ft | 556 kts | 71° |
| 2026-05-05 15:16 | 48.22171 | -49.10570 | 39024 ft | 556 kts | 71° |
| 2026-05-05 15:17 | 48.24815 | -48.99656 | 39018 ft | 556 kts | 71° |
| 2026-05-05 15:17 | 48.27445 | -48.88743 | 39017 ft | 556 kts | 71° |
| 2026-05-05 15:18 | 48.30064 | -48.77823 | 39023 ft | 557 kts | 71° |
| 2026-05-05 15:18 | 48.32663 | -48.66934 | 39026 ft | 558 kts | 71° |
| 2026-05-05 15:19 | 48.35270 | -48.55953 | 39025 ft | 558 kts | 71° |
| 2026-05-05 15:19 | 48.37874 | -48.44932 | 39026 ft | 558 kts | 71° |
| 2026-05-05 15:20 | 48.40464 | -48.33915 | 39034 ft | 558 kts | 71° |
| 2026-05-05 15:20 | 48.43040 | -48.22900 | 39034 ft | 558 kts | 71° |
| 2026-05-05 15:21 | 48.45591 | -48.11935 | 39038 ft | 558 kts | 72° |
| 2026-05-05 15:21 | 48.48148 | -48.00893 | 39039 ft | 557 kts | 72° |
| 2026-05-05 15:22 | 48.50691 | -47.89850 | 39039 ft | 557 kts | 72° |
| 2026-05-05 15:22 | 48.53221 | -47.78806 | 39033 ft | 558 kts | 72° |
| 2026-05-05 15:23 | 48.55748 | -47.67720 | 39041 ft | 559 kts | 72° |
| 2026-05-05 15:23 | 48.58249 | -47.56690 | 39045 ft | 559 kts | 72° |
| 2026-05-05 15:24 | 48.60760 | -47.45561 | 39045 ft | 559 kts | 72° |
| 2026-05-05 15:24 | 48.63256 | -47.34436 | 39045 ft | 559 kts | 73° |
| 2026-05-05 15:25 | 48.65741 | -47.23302 | 39052 ft | 559 kts | 73° |
| 2026-05-05 15:25 | 48.68219 | -47.12143 | 39053 ft | 559 kts | 73° |
| 2026-05-05 15:26 | 48.70682 | -47.00988 | 39050 ft | 559 kts | 73° |
| 2026-05-05 15:26 | 48.73139 | -46.89803 | 39050 ft | 559 kts | 73° |
| 2026-05-05 15:27 | 48.75577 | -46.78645 | 39049 ft | 559 kts | 73° |
| 2026-05-05 15:27 | 48.77999 | -46.67496 | 39062 ft | 560 kts | 73° |
| 2026-05-05 15:28 | 48.80427 | -46.56259 | 39061 ft | 561 kts | 73° |
| 2026-05-05 15:28 | 48.82846 | -46.45006 | 39061 ft | 561 kts | 74° |
| 2026-05-05 15:29 | 48.85256 | -46.33733 | 39061 ft | 561 kts | 74° |
| 2026-05-05 15:29 | 48.87658 | -46.22434 | 39062 ft | 562 kts | 74° |
| 2026-05-05 15:30 | 48.90046 | -46.11136 | 39062 ft | 562 kts | 74° |
| 2026-05-05 15:30 | 48.92421 | -45.99837 | 39072 ft | 562 kts | 74° |
| 2026-05-05 15:31 | 48.94791 | -45.88502 | 39074 ft | 562 kts | 74° |
| 2026-05-05 15:31 | 48.97144 | -45.77179 | 39072 ft | 562 kts | 74° |
| 2026-05-05 15:32 | 48.99492 | -45.65819 | 39075 ft | 562 kts | 75° |
| 2026-05-05 15:32 | 49.01829 | -45.54450 | 39086 ft | 562 kts | 75° |
| 2026-05-05 15:33 | 49.04136 | -45.43159 | 39086 ft | 561 kts | 75° |
| 2026-05-05 15:33 | 49.06447 | -45.31782 | 39086 ft | 561 kts | 75° |
| 2026-05-05 15:34 | 49.08746 | -45.20403 | 39091 ft | 561 kts | 75° |
| 2026-05-05 15:34 | 49.11033 | -45.09015 | 39094 ft | 561 kts | 75° |
| 2026-05-05 15:35 | 49.13307 | -44.97625 | 39099 ft | 560 kts | 75° |
| 2026-05-05 15:35 | 49.15567 | -44.86240 | 39102 ft | 560 kts | 75° |
| 2026-05-05 15:36 | 49.17815 | -44.74846 | 39091 ft | 560 kts | 75° |
| 2026-05-05 15:36 | 49.20051 | -44.63449 | 39111 ft | 559 kts | 75° |
| 2026-05-05 15:37 | 49.22277 | -44.52037 | 39113 ft | 559 kts | 76° |
| 2026-05-05 15:37 | 49.24474 | -44.40699 | 39111 ft | 559 kts | 76° |
| 2026-05-05 15:38 | 49.26678 | -44.29264 | 39118 ft | 559 kts | 76° |
| 2026-05-05 15:38 | 49.28867 | -44.17835 | 39113 ft | 559 kts | 76° |
| 2026-05-05 15:39 | 49.31040 | -44.06421 | 39124 ft | 557 kts | 76° |
| 2026-05-05 15:39 | 49.33199 | -43.95016 | 39125 ft | 557 kts | 76° |
| 2026-05-05 15:40 | 49.35344 | -43.83607 | 39138 ft | 557 kts | 76° |
| 2026-05-05 15:40 | 49.37479 | -43.72188 | 39132 ft | 557 kts | 76° |
| 2026-05-05 15:41 | 49.39599 | -43.60775 | 39143 ft | 556 kts | 76° |
| 2026-05-05 15:41 | 49.41707 | -43.49363 | 39144 ft | 555 kts | 76° |
| 2026-05-05 15:42 | 49.43802 | -43.37944 | 39151 ft | 555 kts | 77° |
| 2026-05-05 15:42 | 49.45874 | -43.26580 | 39149 ft | 555 kts | 77° |
| 2026-05-05 15:43 | 49.47947 | -43.15143 | 39153 ft | 554 kts | 77° |
| 2026-05-05 15:43 | 49.50005 | -43.03718 | 39159 ft | 554 kts | 77° |
| 2026-05-05 15:44 | 49.52050 | -42.92287 | 39162 ft | 554 kts | 77° |
| 2026-05-05 15:44 | 49.54085 | -42.80843 | 39159 ft | 554 kts | 77° |
| 2026-05-05 15:45 | 49.56107 | -42.69403 | 39162 ft | 553 kts | 77° |
| 2026-05-05 15:45 | 49.58114 | -42.57968 | 39167 ft | 553 kts | 77° |
| 2026-05-05 15:46 | 49.60105 | -42.46554 | 39171 ft | 554 kts | 77° |
| 2026-05-05 15:46 | 49.62096 | -42.35065 | 39169 ft | 554 kts | 77° |
| 2026-05-05 15:47 | 49.64075 | -42.23571 | 39174 ft | 554 kts | 77° |
| 2026-05-05 15:47 | 49.66039 | -42.12088 | 39181 ft | 553 kts | 77° |
| 2026-05-05 15:48 | 49.67981 | -42.00665 | 39182 ft | 553 kts | 77° |
| 2026-05-05 15:48 | 49.69922 | -41.89163 | 39172 ft | 553 kts | 77° |
| 2026-05-05 15:49 | 49.71850 | -41.77666 | 39186 ft | 552 kts | 77° |
| 2026-05-05 15:49 | 49.73765 | -41.66168 | 39189 ft | 552 kts | 78° |
| 2026-05-05 15:50 | 49.75668 | -41.54664 | 39164 ft | 552 kts | 78° |
| 2026-05-05 15:50 | 49.77566 | -41.43108 | 39191 ft | 554 kts | 78° |
| 2026-05-05 15:51 | 49.79440 | -41.31628 | 39192 ft | 553 kts | 78° |
| 2026-05-05 15:51 | 49.81314 | -41.20065 | 39194 ft | 553 kts | 78° |
| 2026-05-05 15:52 | 49.83177 | -41.08493 | 39194 ft | 553 kts | 78° |
| 2026-05-05 15:52 | 49.85024 | -40.96938 | 39186 ft | 553 kts | 78° |
| 2026-05-05 15:53 | 49.86862 | -40.85359 | 39202 ft | 552 kts | 78° |
| 2026-05-05 15:53 | 49.88683 | -40.73801 | 39203 ft | 552 kts | 78° |
| 2026-05-05 15:54 | 49.90494 | -40.62234 | 39201 ft | 552 kts | 78° |
| 2026-05-05 15:54 | 49.92281 | -40.50732 | 39192 ft | 552 kts | 78° |
| 2026-05-05 15:55 | 49.94067 | -40.39154 | 39202 ft | 551 kts | 78° |
| 2026-05-05 15:55 | 49.95845 | -40.27549 | 39203 ft | 552 kts | 78° |
| 2026-05-05 15:56 | 49.97610 | -40.15937 | 39203 ft | 552 kts | 78° |
| 2026-05-05 15:56 | 49.99067 | -40.06293 | 39201 ft | 552 kts | 79° |
| 2026-05-05 15:57 | 50.01763 | -39.93061 | 39204 ft | 554 kts | 71° |
| 2026-05-05 15:57 | 50.04080 | -39.83691 | 39206 ft | 554 kts | 70° |
| 2026-05-05 15:58 | 50.06899 | -39.72521 | 39208 ft | 554 kts | 70° |
| 2026-05-05 15:58 | 50.09688 | -39.61405 | 39198 ft | 554 kts | 70° |
| 2026-05-05 15:59 | 50.12466 | -39.50227 | 39205 ft | 553 kts | 70° |
| 2026-05-05 15:59 | 50.15228 | -39.39032 | 39203 ft | 552 kts | 70° |
| 2026-05-05 16:00 | 50.17974 | -39.27840 | 39206 ft | 552 kts | 70° |
| 2026-05-05 16:00 | 50.20713 | -39.16622 | 39203 ft | 552 kts | 70° |
| 2026-05-05 16:01 | 50.23437 | -39.05411 | 39211 ft | 552 kts | 70° |
| 2026-05-05 16:01 | 50.26148 | -38.94198 | 39206 ft | 551 kts | 70° |
| 2026-05-05 16:02 | 50.28833 | -38.83032 | 39203 ft | 553 kts | 70° |
| 2026-05-05 16:02 | 50.31532 | -38.71753 | 39208 ft | 553 kts | 70° |
| 2026-05-05 16:03 | 50.34216 | -38.60477 | 39208 ft | 553 kts | 70° |
| 2026-05-05 16:03 | 50.36888 | -38.49198 | 39211 ft | 553 kts | 71° |
| 2026-05-05 16:04 | 50.39549 | -38.37900 | 39211 ft | 553 kts | 71° |
| 2026-05-05 16:04 | 50.42195 | -38.26609 | 39208 ft | 551 kts | 71° |
| 2026-05-05 16:05 | 50.44825 | -38.15326 | 39208 ft | 550 kts | 71° |
| 2026-05-05 16:05 | 50.47440 | -38.04048 | 39208 ft | 550 kts | 71° |
| 2026-05-05 16:06 | 50.50047 | -37.92746 | 39211 ft | 550 kts | 71° |
| 2026-05-05 16:06 | 50.52637 | -37.81459 | 39211 ft | 549 kts | 71° |
| 2026-05-05 16:07 | 50.55212 | -37.70177 | 39208 ft | 548 kts | 71° |
| 2026-05-05 16:07 | 50.57759 | -37.58958 | 39208 ft | 548 kts | 71° |
| 2026-05-05 16:08 | 50.60309 | -37.47663 | 39200 ft | 548 kts | 71° |
| 2026-05-05 16:08 | 50.62849 | -37.36354 | 39206 ft | 547 kts | 71° |
| 2026-05-05 16:09 | 50.65376 | -37.25045 | 39206 ft | 547 kts | 71° |
| 2026-05-05 16:09 | 50.67889 | -37.13731 | 39206 ft | 547 kts | 71° |
| 2026-05-05 16:10 | 50.70393 | -37.02399 | 39183 ft | 546 kts | 71° |
| 2026-05-05 16:10 | 50.72885 | -36.91063 | 39199 ft | 546 kts | 71° |
| 2026-05-05 16:11 | 50.75365 | -36.79715 | 39205 ft | 547 kts | 71° |
| 2026-05-05 16:12 | 50.80277 | -36.57057 | 39201 ft | 546 kts | 71° |
| 2026-05-05 16:13 | 50.86354 | -36.28668 | 39196 ft | 545 kts | 72° |
| 2026-05-05 16:13 | 50.88767 | -36.17289 | 39192 ft | 545 kts | 72° |
| 2026-05-05 16:14 | 50.93542 | -35.94574 | 39190 ft | 542 kts | 72° |
| 2026-05-05 16:15 | 50.98263 | -35.71858 | 39195 ft | 542 kts | 72° |
| 2026-05-05 16:16 | 51.02927 | -35.49162 | 39187 ft | 542 kts | 72° |
| 2026-05-05 16:17 | 51.06407 | -35.32055 | 39185 ft | 542 kts | 72° |
| 2026-05-05 16:18 | 51.09861 | -35.14927 | 39186 ft | 541 kts | 73° |
| 2026-05-05 16:19 | 51.13288 | -34.97782 | 39183 ft | 542 kts | 72° |
| 2026-05-05 16:19 | 51.16694 | -34.80594 | 39171 ft | 543 kts | 73° |
| 2026-05-05 16:20 | 51.21177 | -34.57739 | 39179 ft | 541 kts | 73° |
| 2026-05-05 16:22 | 51.26728 | -34.29049 | 39175 ft | 539 kts | 73° |
| 2026-05-05 16:23 | 51.31097 | -34.06158 | 39177 ft | 538 kts | 73° |
| 2026-05-05 16:23 | 51.34329 | -33.89045 | 39183 ft | 538 kts | 73° |
| 2026-05-05 16:24 | 51.36474 | -33.77599 | 39185 ft | 537 kts | 74° |
| 2026-05-05 16:25 | 51.39669 | -33.60419 | 39187 ft | 537 kts | 74° |
| 2026-05-05 16:25 | 51.42838 | -33.43220 | 39191 ft | 536 kts | 74° |
| 2026-05-05 16:26 | 51.47017 | -33.20293 | 39194 ft | 535 kts | 74° |
| 2026-05-05 16:27 | 51.49080 | -33.08867 | 39197 ft | 535 kts | 74° |
| 2026-05-05 16:27 | 51.51154 | -32.97307 | 39197 ft | 536 kts | 73° |
| 2026-05-05 16:28 | 51.53190 | -32.85884 | 39205 ft | 536 kts | 73° |
| 2026-05-05 16:28 | 51.55230 | -32.74368 | 39205 ft | 536 kts | 74° |
| 2026-05-05 16:29 | 51.57258 | -32.62846 | 39213 ft | 536 kts | 74° |
| 2026-05-05 16:29 | 51.59274 | -32.51319 | 39217 ft | 535 kts | 73° |
| 2026-05-05 16:30 | 51.61267 | -32.39845 | 39219 ft | 531 kts | 73° |
| 2026-05-05 16:30 | 51.63243 | -32.28394 | 39226 ft | 531 kts | 74° |
| 2026-05-05 16:31 | 51.65209 | -32.16936 | 39226 ft | 530 kts | 74° |
| 2026-05-05 16:31 | 51.67158 | -32.05491 | 39227 ft | 530 kts | 74° |
| 2026-05-05 16:32 | 51.69092 | -31.94070 | 39231 ft | 527 kts | 74° |
| 2026-05-05 16:32 | 51.71006 | -31.82690 | 39233 ft | 526 kts | 74° |
| 2026-05-05 16:33 | 51.72910 | -31.71288 | 39235 ft | 526 kts | 74° |
| 2026-05-05 16:33 | 51.74801 | -31.59886 | 39247 ft | 526 kts | 74° |
| 2026-05-05 16:34 | 51.76660 | -31.48604 | 39238 ft | 522 kts | 74° |
| 2026-05-05 16:34 | 51.78512 | -31.37292 | 39243 ft | 521 kts | 74° |
| 2026-05-05 16:35 | 51.80354 | -31.25968 | 39246 ft | 521 kts | 74° |
| 2026-05-05 16:35 | 51.82185 | -31.14634 | 39252 ft | 521 kts | 75° |
| 2026-05-05 16:36 | 51.84005 | -31.03292 | 39253 ft | 521 kts | 75° |
| 2026-05-05 16:36 | 51.85813 | -30.91950 | 39254 ft | 521 kts | 75° |
| 2026-05-05 16:37 | 51.87598 | -30.80673 | 39253 ft | 521 kts | 75° |
| 2026-05-05 16:37 | 51.89384 | -30.69307 | 39251 ft | 521 kts | 75° |
| 2026-05-05 16:38 | 51.91153 | -30.57977 | 39261 ft | 516 kts | 75° |
| 2026-05-05 16:38 | 51.92897 | -30.46726 | 39262 ft | 514 kts | 75° |
| 2026-05-05 16:39 | 51.94627 | -30.35489 | 39266 ft | 514 kts | 75° |
| 2026-05-05 16:39 | 51.96346 | -30.24249 | 39264 ft | 514 kts | 75° |
| 2026-05-05 16:40 | 51.98053 | -30.12999 | 39266 ft | 513 kts | 75° |
| 2026-05-05 16:40 | 51.99790 | -30.01780 | 39268 ft | 511 kts | 71° |
| 2026-05-05 16:41 | 52.02268 | -29.90997 | 39270 ft | 510 kts | 67° |
| 2026-05-05 16:41 | 52.04938 | -29.80308 | 39269 ft | 510 kts | 66° |
| 2026-05-05 16:42 | 52.07627 | -29.69642 | 39284 ft | 509 kts | 66° |
| 2026-05-05 16:42 | 52.10272 | -29.59066 | 39279 ft | 508 kts | 66° |
| 2026-05-05 16:43 | 52.12916 | -29.48404 | 39277 ft | 507 kts | 66° |
| 2026-05-05 16:43 | 52.15547 | -29.37730 | 39284 ft | 507 kts | 66° |
| 2026-05-05 16:44 | 52.17725 | -29.28854 | 39289 ft | 507 kts | 66° |
| 2026-05-05 16:44 | 52.20750 | -29.16469 | 39274 ft | 505 kts | 66° |
| 2026-05-05 16:45 | 52.22919 | -29.07546 | 39283 ft | 505 kts | 66° |
| 2026-05-05 16:45 | 52.25497 | -28.96894 | 39277 ft | 505 kts | 66° |
| 2026-05-05 16:46 | 52.28049 | -28.86299 | 39290 ft | 505 kts | 66° |
| 2026-05-05 16:46 | 52.30605 | -28.75627 | 39284 ft | 503 kts | 65° |
| 2026-05-05 16:47 | 52.33143 | -28.64983 | 39284 ft | 502 kts | 65° |
| 2026-05-05 16:47 | 52.35671 | -28.54333 | 39284 ft | 502 kts | 66° |
| 2026-05-05 16:48 | 52.38188 | -28.43673 | 39287 ft | 502 kts | 66° |
| 2026-05-05 16:48 | 52.40696 | -28.33000 | 39287 ft | 502 kts | 65° |
| 2026-05-05 16:49 | 52.43195 | -28.22310 | 39287 ft | 502 kts | 65° |
| 2026-05-05 16:49 | 52.45681 | -28.11624 | 39289 ft | 502 kts | 65° |
| 2026-05-05 16:50 | 52.48158 | -28.00925 | 39290 ft | 502 kts | 66° |
| 2026-05-05 16:50 | 52.50626 | -27.90208 | 39295 ft | 502 kts | 65° |
| 2026-05-05 16:51 | 52.53075 | -27.79521 | 39293 ft | 503 kts | 66° |
| 2026-05-05 16:51 | 52.55529 | -27.68753 | 39292 ft | 503 kts | 66° |
| 2026-05-05 16:52 | 52.57972 | -27.57983 | 39295 ft | 503 kts | 66° |
| 2026-05-05 16:52 | 52.60410 | -27.47182 | 39301 ft | 503 kts | 66° |
| 2026-05-05 16:53 | 52.62840 | -27.36359 | 39295 ft | 504 kts | 66° |
| 2026-05-05 16:53 | 52.65242 | -27.25604 | 39295 ft | 504 kts | 66° |
| 2026-05-05 16:54 | 52.67655 | -27.14740 | 39292 ft | 504 kts | 66° |
| 2026-05-05 16:54 | 52.70054 | -27.03886 | 39309 ft | 504 kts | 66° |
| 2026-05-05 16:55 | 52.72446 | -26.93007 | 39293 ft | 504 kts | 66° |
| 2026-05-05 16:55 | 52.74814 | -26.82183 | 39293 ft | 504 kts | 66° |
| 2026-05-05 16:56 | 52.77185 | -26.71285 | 39297 ft | 504 kts | 66° |
| 2026-05-05 16:56 | 52.79547 | -26.60370 | 39297 ft | 504 kts | 66° |
| 2026-05-05 16:57 | 52.81898 | -26.49452 | 39293 ft | 504 kts | 66° |
| 2026-05-05 16:57 | 52.84238 | -26.38520 | 39294 ft | 504 kts | 66° |
| 2026-05-05 16:58 | 52.86566 | -26.27589 | 39291 ft | 504 kts | 67° |
| 2026-05-05 16:58 | 52.88890 | -26.16621 | 39293 ft | 504 kts | 67° |
| 2026-05-05 16:59 | 52.91202 | -26.05647 | 39292 ft | 505 kts | 67° |
| 2026-05-05 16:59 | 52.93505 | -25.94654 | 39290 ft | 505 kts | 67° |
| 2026-05-05 17:00 | 52.95799 | -25.83645 | 39293 ft | 505 kts | 67° |
| 2026-05-05 17:00 | 52.98068 | -25.72698 | 39289 ft | 505 kts | 67° |
| 2026-05-05 17:01 | 53.00342 | -25.61663 | 39286 ft | 505 kts | 67° |
| 2026-05-05 17:01 | 53.02613 | -25.50583 | 39286 ft | 506 kts | 68° |
| 2026-05-05 17:02 | 53.04869 | -25.39514 | 39285 ft | 506 kts | 68° |
| 2026-05-05 17:02 | 53.07118 | -25.28421 | 39293 ft | 506 kts | 68° |
| 2026-05-05 17:03 | 53.09354 | -25.17324 | 39297 ft | 506 kts | 68° |
| 2026-05-05 17:03 | 53.11567 | -25.06284 | 39284 ft | 506 kts | 68° |
| 2026-05-05 17:04 | 53.13788 | -24.95135 | 39281 ft | 506 kts | 68° |
| 2026-05-05 17:04 | 53.15995 | -24.83995 | 39281 ft | 507 kts | 68° |
| 2026-05-05 17:05 | 53.18193 | -24.72839 | 39298 ft | 507 kts | 68° |
| 2026-05-05 17:05 | 53.20381 | -24.61666 | 39280 ft | 507 kts | 68° |
| 2026-05-05 17:06 | 53.22566 | -24.50447 | 39278 ft | 508 kts | 68° |
| 2026-05-05 17:06 | 53.24736 | -24.39237 | 39275 ft | 508 kts | 69° |
| 2026-05-05 17:07 | 53.26902 | -24.27982 | 39272 ft | 508 kts | 69° |
| 2026-05-05 17:07 | 53.29053 | -24.16739 | 39267 ft | 509 kts | 69° |
| 2026-05-05 17:08 | 53.31199 | -24.05455 | 39276 ft | 509 kts | 69° |
| 2026-05-05 17:08 | 53.33332 | -23.94174 | 39278 ft | 509 kts | 69° |
| 2026-05-05 17:09 | 53.35442 | -23.82942 | 39277 ft | 509 kts | 69° |
| 2026-05-05 17:09 | 53.37554 | -23.71635 | 39272 ft | 509 kts | 69° |
| 2026-05-05 17:10 | 53.39655 | -23.60317 | 39265 ft | 509 kts | 69° |
| 2026-05-05 17:10 | 53.41747 | -23.48984 | 39262 ft | 509 kts | 69° |
| 2026-05-05 17:11 | 53.43830 | -23.37627 | 39263 ft | 509 kts | 70° |
| 2026-05-05 17:11 | 53.45900 | -23.26272 | 39269 ft | 509 kts | 70° |
| 2026-05-05 17:12 | 53.47963 | -23.14884 | 39261 ft | 509 kts | 70° |
| 2026-05-05 17:12 | 53.50011 | -23.03505 | 39260 ft | 509 kts | 70° |
| 2026-05-05 17:13 | 53.52051 | -22.92104 | 39252 ft | 509 kts | 70° |
| 2026-05-05 17:13 | 53.54077 | -22.80708 | 39272 ft | 509 kts | 70° |
| 2026-05-05 17:14 | 53.56080 | -22.69369 | 39249 ft | 510 kts | 70° |
| 2026-05-05 17:14 | 53.58087 | -22.57938 | 39249 ft | 510 kts | 70° |
| 2026-05-05 17:15 | 53.60087 | -22.46469 | 39249 ft | 510 kts | 71° |
| 2026-05-05 17:15 | 53.62073 | -22.35010 | 39249 ft | 510 kts | 71° |
| 2026-05-05 17:16 | 53.64051 | -22.23524 | 39247 ft | 510 kts | 71° |
| 2026-05-05 17:16 | 53.66002 | -22.12115 | 39243 ft | 510 kts | 71° |
| 2026-05-05 17:17 | 53.67958 | -22.00611 | 39244 ft | 510 kts | 71° |
| 2026-05-05 17:17 | 53.69902 | -21.89091 | 39241 ft | 510 kts | 71° |
| 2026-05-05 17:18 | 53.71837 | -21.77555 | 39244 ft | 510 kts | 71° |
| 2026-05-05 17:18 | 53.73760 | -21.66017 | 39241 ft | 510 kts | 71° |
| 2026-05-05 17:19 | 53.75674 | -21.54454 | 39241 ft | 510 kts | 71° |
| 2026-05-05 17:19 | 53.77576 | -21.42879 | 39241 ft | 510 kts | 71° |
| 2026-05-05 17:20 | 53.79466 | -21.31306 | 39239 ft | 510 kts | 72° |
| 2026-05-05 17:20 | 53.81335 | -21.19782 | 39235 ft | 511 kts | 72° |
| 2026-05-05 17:21 | 53.83204 | -21.08180 | 39235 ft | 511 kts | 72° |
| 2026-05-05 17:22 | 53.85988 | -20.90742 | 39232 ft | 511 kts | 72° |
| 2026-05-05 17:22 | 53.87829 | -20.79112 | 39233 ft | 511 kts | 72° |
| 2026-05-05 17:23 | 53.89660 | -20.67464 | 39230 ft | 511 kts | 72° |
| 2026-05-05 17:23 | 53.91468 | -20.55883 | 39230 ft | 511 kts | 72° |
| 2026-05-05 17:24 | 53.93277 | -20.44208 | 39229 ft | 511 kts | 72° |
| 2026-05-05 17:24 | 53.95076 | -20.32520 | 39234 ft | 512 kts | 73° |
| 2026-05-05 17:25 | 53.96864 | -20.20816 | 39227 ft | 512 kts | 73° |
| 2026-05-05 17:25 | 53.98642 | -20.09099 | 39222 ft | 512 kts | 73° |
| 2026-05-05 17:26 | 53.99977 | -19.97193 | 39229 ft | 515 kts | 84° |
| 2026-05-05 17:26 | 54.00362 | -19.85005 | 39222 ft | 516 kts | 85° |
| 2026-05-05 17:27 | 54.00581 | -19.72797 | 39216 ft | 517 kts | 86° |
| 2026-05-05 17:27 | 54.00772 | -19.60654 | 39217 ft | 517 kts | 86° |
| 2026-05-05 17:28 | 54.00968 | -19.48437 | 39216 ft | 517 kts | 86° |
| 2026-05-05 17:28 | 54.01162 | -19.36221 | 39216 ft | 517 kts | 86° |
| 2026-05-05 17:29 | 54.01346 | -19.24005 | 39214 ft | 517 kts | 86° |
| 2026-05-05 17:29 | 54.01518 | -19.11763 | 39222 ft | 517 kts | 86° |
| 2026-05-05 17:30 | 54.01676 | -18.99529 | 39219 ft | 517 kts | 87° |
| 2026-05-05 17:30 | 54.01822 | -18.87291 | 39201 ft | 518 kts | 87° |
| 2026-05-05 17:31 | 54.01954 | -18.75115 | 39216 ft | 518 kts | 87° |
| 2026-05-05 17:31 | 54.02075 | -18.62865 | 39212 ft | 518 kts | 87° |
| 2026-05-05 17:32 | 54.02183 | -18.50620 | 39211 ft | 518 kts | 87° |
| 2026-05-05 17:32 | 54.02279 | -18.38362 | 39201 ft | 518 kts | 88° |
| 2026-05-05 17:33 | 54.02363 | -18.26112 | 39206 ft | 518 kts | 88° |
| 2026-05-05 17:33 | 54.02423 | -18.15923 | 39207 ft | 518 kts | 88° |
| 2026-05-05 17:34 | 54.02484 | -18.03668 | 39202 ft | 518 kts | 88° |
| 2026-05-05 17:34 | 54.02532 | -17.91408 | 39198 ft | 518 kts | 88° |
| 2026-05-05 17:35 | 54.02568 | -17.79145 | 39210 ft | 519 kts | 88° |
| 2026-05-05 17:35 | 54.02591 | -17.66850 | 39195 ft | 518 kts | 88° |
| 2026-05-05 17:36 | 54.02602 | -17.54574 | 39199 ft | 518 kts | 88° |
| 2026-05-05 17:36 | 54.02601 | -17.42312 | 39201 ft | 518 kts | 89° |
| 2026-05-05 17:37 | 54.02587 | -17.30134 | 39197 ft | 518 kts | 89° |
| 2026-05-05 17:37 | 54.02560 | -17.17838 | 39198 ft | 519 kts | 89° |
| 2026-05-05 17:38 | 54.02521 | -17.05555 | 39200 ft | 519 kts | 89° |
| 2026-05-05 17:38 | 54.02470 | -16.93280 | 39196 ft | 520 kts | 89° |
| 2026-05-05 17:39 | 54.02406 | -16.80985 | 39195 ft | 520 kts | 89° |
| 2026-05-05 17:39 | 54.02329 | -16.68677 | 39195 ft | 520 kts | 89° |
| 2026-05-05 17:40 | 54.02240 | -16.56449 | 39194 ft | 520 kts | 89° |
| 2026-05-05 17:40 | 54.02138 | -16.44154 | 39189 ft | 520 kts | 89° |
| 2026-05-05 17:41 | 54.02024 | -16.31853 | 39187 ft | 520 kts | 90° |
| 2026-05-05 17:41 | 54.01897 | -16.19550 | 39189 ft | 520 kts | 90° |
| 2026-05-05 17:42 | 54.01757 | -16.07255 | 39190 ft | 520 kts | 90° |
| 2026-05-05 17:42 | 54.01605 | -15.94948 | 39190 ft | 520 kts | 90° |
| 2026-05-05 17:43 | 54.01442 | -15.82702 | 39188 ft | 520 kts | 90° |
| 2026-05-05 17:43 | 54.01264 | -15.70387 | 39183 ft | 520 kts | 90° |
| 2026-05-05 17:44 | 54.01075 | -15.58087 | 39182 ft | 520 kts | 90° |
| 2026-05-05 17:44 | 54.00873 | -15.45855 | 39177 ft | 520 kts | 90° |
| 2026-05-05 17:45 | 54.00659 | -15.33545 | 39182 ft | 521 kts | 91° |
| 2026-05-05 17:45 | 54.00431 | -15.21210 | 39181 ft | 522 kts | 91° |
| 2026-05-05 17:46 | 54.00190 | -15.08885 | 39180 ft | 522 kts | 91° |
| 2026-05-05 17:46 | 53.99946 | -14.96547 | 39178 ft | 521 kts | 90° |
| 2026-05-05 17:47 | 53.99950 | -14.84228 | 39182 ft | 521 kts | 88° |
| 2026-05-05 17:47 | 54.00051 | -14.71896 | 39176 ft | 522 kts | 88° |
| 2026-05-05 17:48 | 54.00104 | -14.60880 | 39176 ft | 522 kts | 89° |
| 2026-05-05 17:48 | 54.00118 | -14.48541 | 39174 ft | 522 kts | 89° |
| 2026-05-05 17:49 | 54.00107 | -14.36200 | 39198 ft | 522 kts | 89° |
| 2026-05-05 17:49 | 54.00097 | -14.30031 | 39324 ft | 523 kts | 89° |
| 2026-05-05 17:49 | 54.00084 | -14.23843 | 39455 ft | 522 kts | 89° |
| 2026-05-05 17:49 | 54.00069 | -14.17673 | 39599 ft | 522 kts | 89° |
| 2026-05-05 17:50 | 54.00051 | -14.11515 | 39737 ft | 522 kts | 89° |
| 2026-05-05 17:50 | 54.00030 | -14.05354 | 39856 ft | 522 kts | 89° |
| 2026-05-05 17:50 | 54.00006 | -13.99190 | 39983 ft | 522 kts | 89° |
| 2026-05-05 17:50 | 53.99950 | -13.93027 | 40098 ft | 522 kts | 90° |
| 2026-05-05 17:51 | 53.99834 | -13.86842 | 40220 ft | 522 kts | 91° |
| 2026-05-05 17:51 | 53.99692 | -13.80692 | 40333 ft | 522 kts | 91° |
| 2026-05-05 17:51 | 53.99541 | -13.74533 | 40442 ft | 522 kts | 91° |
| 2026-05-05 17:51 | 53.99392 | -13.68376 | 40561 ft | 521 kts | 91° |
| 2026-05-05 17:52 | 53.99248 | -13.62234 | 40668 ft | 521 kts | 91° |
| 2026-05-05 17:52 | 53.98964 | -13.49914 | 40854 ft | 521 kts | 91° |
| 2026-05-05 17:52 | 53.98822 | -13.43756 | 40961 ft | 521 kts | 91° |
| 2026-05-05 17:53 | 53.98677 | -13.37605 | 41056 ft | 521 kts | 91° |
| 2026-05-05 17:53 | 53.98380 | -13.25377 | 41156 ft | 522 kts | 91° |
| 2026-05-05 17:54 | 53.98068 | -13.13077 | 41153 ft | 521 kts | 91° |
| 2026-05-05 17:54 | 53.97743 | -13.00778 | 41159 ft | 521 kts | 92° |
| 2026-05-05 17:55 | 53.97405 | -12.88484 | 41158 ft | 521 kts | 92° |
| 2026-05-05 17:55 | 53.97054 | -12.76171 | 41157 ft | 521 kts | 92° |
| 2026-05-05 17:56 | 53.96691 | -12.63893 | 41155 ft | 521 kts | 92° |
| 2026-05-05 17:56 | 53.96315 | -12.51593 | 41155 ft | 521 kts | 92° |
| 2026-05-05 17:57 | 53.95928 | -12.39322 | 41152 ft | 521 kts | 92° |
| 2026-05-05 17:57 | 53.95527 | -12.27030 | 41149 ft | 521 kts | 92° |
| 2026-05-05 17:58 | 53.95117 | -12.14834 | 41155 ft | 521 kts | 92° |
| 2026-05-05 17:58 | 53.94691 | -12.02545 | 41143 ft | 521 kts | 92° |
| 2026-05-05 17:59 | 53.94253 | -11.90274 | 41140 ft | 521 kts | 93° |
| 2026-05-05 17:59 | 53.93802 | -11.78005 | 41140 ft | 521 kts | 93° |
| 2026-05-05 18:00 | 53.93340 | -11.65738 | 41142 ft | 521 kts | 93° |
| 2026-05-05 18:00 | 53.92863 | -11.53450 | 41141 ft | 520 kts | 93° |
| 2026-05-05 18:01 | 53.92376 | -11.41216 | 41140 ft | 520 kts | 93° |
| 2026-05-05 18:01 | 53.91877 | -11.28975 | 41132 ft | 520 kts | 93° |
| 2026-05-05 18:02 | 53.91367 | -11.16808 | 41129 ft | 520 kts | 94° |
| 2026-05-05 18:02 | 53.90843 | -11.04565 | 41130 ft | 520 kts | 94° |
| 2026-05-05 18:03 | 53.90306 | -10.92336 | 41127 ft | 520 kts | 94° |
| 2026-05-05 18:03 | 53.89757 | -10.80110 | 41126 ft | 520 kts | 94° |
| 2026-05-05 18:04 | 53.89195 | -10.67886 | 41127 ft | 520 kts | 94° |
| 2026-05-05 18:04 | 53.88620 | -10.55654 | 41127 ft | 520 kts | 94° |
| 2026-05-05 18:05 | 53.88034 | -10.43439 | 41120 ft | 520 kts | 94° |
| 2026-05-05 18:05 | 53.87439 | -10.31307 | 41118 ft | 520 kts | 94° |
| 2026-05-05 18:06 | 53.86828 | -10.19115 | 41115 ft | 520 kts | 94° |
| 2026-05-05 18:06 | 53.86205 | -10.06911 | 41115 ft | 520 kts | 94° |
| 2026-05-05 18:07 | 53.85569 | -9.94710 | 41117 ft | 520 kts | 95° |
| 2026-05-05 18:07 | 53.84919 | -9.82489 | 41108 ft | 520 kts | 95° |
| 2026-05-05 18:08 | 53.84259 | -9.70305 | 41101 ft | 520 kts | 95° |
| 2026-05-05 18:08 | 53.83586 | -9.58108 | 41102 ft | 519 kts | 95° |
| 2026-05-05 18:09 | 53.82901 | -9.45934 | 41100 ft | 519 kts | 95° |
| 2026-05-05 18:09 | 53.82204 | -9.33763 | 41099 ft | 519 kts | 95° |
| 2026-05-05 18:10 | 53.81494 | -9.21594 | 41100 ft | 520 kts | 95° |
| 2026-05-05 18:10 | 53.80772 | -9.09427 | 41097 ft | 520 kts | 95° |
| 2026-05-05 18:11 | 53.80038 | -8.97266 | 41099 ft | 520 kts | 95° |
| 2026-05-05 18:11 | 53.79292 | -8.85108 | 41102 ft | 520 kts | 96° |
| 2026-05-05 18:12 | 53.78533 | -8.72954 | 41096 ft | 520 kts | 96° |
| 2026-05-05 18:12 | 53.77766 | -8.60872 | 41096 ft | 520 kts | 96° |
| 2026-05-05 18:13 | 53.76983 | -8.48726 | 41088 ft | 520 kts | 96° |
| 2026-05-05 18:13 | 53.76186 | -8.36566 | 41087 ft | 520 kts | 96° |
| 2026-05-05 18:14 | 53.75379 | -8.24445 | 41076 ft | 520 kts | 96° |
| 2026-05-05 18:14 | 53.74558 | -8.12309 | 41072 ft | 519 kts | 96° |
| 2026-05-05 18:15 | 53.73726 | -8.00182 | 41069 ft | 519 kts | 96° |
| 2026-05-05 18:15 | 53.72881 | -7.88063 | 41066 ft | 519 kts | 97° |
| 2026-05-05 18:16 | 53.72026 | -7.75969 | 41068 ft | 519 kts | 97° |
| 2026-05-05 18:16 | 53.71159 | -7.63884 | 41066 ft | 519 kts | 97° |
| 2026-05-05 18:17 | 53.70279 | -7.51800 | 41061 ft | 519 kts | 97° |
| 2026-05-05 18:17 | 53.69387 | -7.39719 | 41063 ft | 519 kts | 97° |
| 2026-05-05 18:18 | 53.68489 | -7.27719 | 41058 ft | 519 kts | 97° |
| 2026-05-05 18:18 | 53.67567 | -7.15572 | 41058 ft | 518 kts | 97° |
| 2026-05-05 18:19 | 53.66646 | -7.03594 | 41054 ft | 518 kts | 97° |
| 2026-05-05 18:19 | 53.65705 | -6.91529 | 41057 ft | 518 kts | 97° |
| 2026-05-05 18:20 | 53.64754 | -6.79493 | 41056 ft | 518 kts | 98° |
| 2026-05-05 18:20 | 53.63789 | -6.67441 | 41058 ft | 518 kts | 98° |
| 2026-05-05 18:21 | 53.62978 | -6.57423 | 41060 ft | 518 kts | 98° |
| 2026-05-05 18:21 | 53.61831 | -6.43450 | 41060 ft | 518 kts | 98° |
| 2026-05-05 18:22 | 53.60993 | -6.33357 | 41057 ft | 518 kts | 98° |
| 2026-05-05 18:22 | 53.59990 | -6.21419 | 41056 ft | 518 kts | 98° |
| 2026-05-05 18:23 | 53.58967 | -6.09402 | 41059 ft | 518 kts | 98° |
| 2026-05-05 18:23 | 53.57936 | -5.97429 | 41051 ft | 517 kts | 98° |
| 2026-05-05 18:24 | 53.56892 | -5.85447 | 41054 ft | 517 kts | 98° |
| 2026-05-05 18:24 | 53.55837 | -5.73485 | 41052 ft | 517 kts | 99° |
| 2026-05-05 18:25 | 53.54770 | -5.61529 | 41055 ft | 517 kts | 99° |
| 2026-05-05 18:25 | 53.53800 | -5.49549 | 41055 ft | 517 kts | 93° |
| 2026-05-05 18:26 | 53.53404 | -5.37466 | 41053 ft | 517 kts | 92° |
| 2026-05-05 18:26 | 53.53105 | -5.25455 | 41052 ft | 517 kts | 92° |
| 2026-05-05 18:27 | 53.52807 | -5.13379 | 41049 ft | 517 kts | 92° |
| 2026-05-05 18:27 | 53.52450 | -5.01289 | 41046 ft | 517 kts | 93° |
| 2026-05-05 18:28 | 53.51843 | -4.83168 | 41048 ft | 517 kts | 93° |
| 2026-05-05 18:28 | 53.51438 | -4.71109 | 41042 ft | 517 kts | 93° |
| 2026-05-05 18:29 | 53.51023 | -4.59109 | 41037 ft | 517 kts | 94° |
| 2026-05-05 18:29 | 53.50595 | -4.47073 | 41033 ft | 517 kts | 94° |
| 2026-05-05 18:30 | 53.50156 | -4.35020 | 41035 ft | 517 kts | 94° |
| 2026-05-05 18:30 | 53.49706 | -4.22986 | 41032 ft | 517 kts | 94° |
| 2026-05-05 18:31 | 53.49243 | -4.10942 | 41028 ft | 516 kts | 94° |
| 2026-05-05 18:31 | 53.48675 | -3.98919 | 41029 ft | 516 kts | 99° |
| 2026-05-05 18:32 | 53.46860 | -3.87302 | 41029 ft | 514 kts | 109° |
| 2026-05-05 18:32 | 53.44554 | -3.75935 | 41028 ft | 515 kts | 110° |
| 2026-05-05 18:33 | 53.42160 | -3.64624 | 41032 ft | 515 kts | 110° |
| 2026-05-05 18:33 | 53.39290 | -3.53646 | 41030 ft | 514 kts | 116° |
| 2026-05-05 18:34 | 53.36222 | -3.42913 | 41027 ft | 514 kts | 117° |
| 2026-05-05 18:34 | 53.33101 | -3.32162 | 41037 ft | 513 kts | 117° |
| 2026-05-05 18:35 | 53.29971 | -3.21424 | 41041 ft | 513 kts | 117° |
| 2026-05-05 18:35 | 53.26839 | -3.10702 | 41047 ft | 513 kts | 117° |
| 2026-05-05 18:36 | 53.23699 | -2.99992 | 41049 ft | 513 kts | 117° |
| 2026-05-05 18:36 | 53.20552 | -2.89299 | 41047 ft | 513 kts | 117° |
| 2026-05-05 18:37 | 53.17403 | -2.78649 | 41018 ft | 512 kts | 117° |
| 2026-05-05 18:37 | 53.14241 | -2.68000 | 41021 ft | 512 kts | 117° |
| 2026-05-05 18:38 | 53.11074 | -2.57381 | 41018 ft | 512 kts | 117° |
| 2026-05-05 18:38 | 53.09490 | -2.52088 | 40883 ft | 508 kts | 117° |
| 2026-05-05 18:38 | 53.07924 | -2.46864 | 40643 ft | 501 kts | 117° |
| 2026-05-05 18:39 | 53.06392 | -2.41768 | 40398 ft | 499 kts | 117° |
| 2026-05-05 18:39 | 53.04855 | -2.36686 | 39855 ft | 498 kts | 118° |
| 2026-05-05 18:39 | 53.02999 | -2.31849 | 39180 ft | 495 kts | 131° |
| 2026-05-05 18:39 | 53.00538 | -2.27919 | 38564 ft | 490 kts | 146° |
| 2026-05-05 18:40 | 52.97727 | -2.24787 | 37867 ft | 487 kts | 149° |
| 2026-05-05 18:40 | 52.94867 | -2.21809 | 37247 ft | 484 kts | 149° |
| 2026-05-05 18:40 | 52.92017 | -2.18853 | 36647 ft | 482 kts | 149° |
| 2026-05-05 18:40 | 52.89179 | -2.15902 | 36019 ft | 481 kts | 149° |
| 2026-05-05 18:41 | 52.86347 | -2.12955 | 35382 ft | 480 kts | 149° |
| 2026-05-05 18:41 | 52.83511 | -2.10005 | 34716 ft | 481 kts | 149° |
| 2026-05-05 18:41 | 52.80674 | -2.07055 | 33986 ft | 483 kts | 148° |
| 2026-05-05 18:41 | 52.77825 | -2.04096 | 33177 ft | 484 kts | 148° |
| 2026-05-05 18:42 | 52.74973 | -2.01136 | 32409 ft | 484 kts | 148° |
| 2026-05-05 18:42 | 52.72124 | -1.98182 | 31629 ft | 483 kts | 149° |
| 2026-05-05 18:42 | 52.69268 | -1.95227 | 30863 ft | 483 kts | 150° |
| 2026-05-05 18:42 | 52.66461 | -1.92327 | 30059 ft | 483 kts | 150° |
| 2026-05-05 18:43 | 52.63619 | -1.89395 | 29137 ft | 483 kts | 150° |
| 2026-05-05 18:43 | 52.60776 | -1.86467 | 28447 ft | 478 kts | 150° |
| 2026-05-05 18:43 | 52.57969 | -1.83580 | 27871 ft | 472 kts | 150° |
| 2026-05-05 18:43 | 52.55203 | -1.80739 | 27289 ft | 466 kts | 150° |
| 2026-05-05 18:44 | 52.52467 | -1.77933 | 26730 ft | 461 kts | 150° |
| 2026-05-05 18:44 | 52.49755 | -1.75157 | 26123 ft | 457 kts | 150° |
| 2026-05-05 18:44 | 52.47069 | -1.72412 | 25561 ft | 452 kts | 150° |
| 2026-05-05 18:44 | 52.44412 | -1.69700 | 24991 ft | 448 kts | 150° |
| 2026-05-05 18:45 | 52.41777 | -1.67015 | 24429 ft | 445 kts | 150° |
| 2026-05-05 18:45 | 52.39159 | -1.64350 | 23868 ft | 441 kts | 150° |
| 2026-05-05 18:45 | 52.36556 | -1.61705 | 23264 ft | 438 kts | 150° |
| 2026-05-05 18:45 | 52.33977 | -1.59088 | 22660 ft | 434 kts | 150° |
| 2026-05-05 18:46 | 52.31423 | -1.56499 | 22107 ft | 429 kts | 150° |
| 2026-05-05 18:46 | 52.28893 | -1.53938 | 21542 ft | 425 kts | 150° |
| 2026-05-05 18:46 | 52.26388 | -1.51406 | 20992 ft | 421 kts | 150° |
| 2026-05-05 18:46 | 52.23944 | -1.48941 | 20443 ft | 418 kts | 150° |
| 2026-05-05 18:47 | 52.21525 | -1.46339 | 19912 ft | 416 kts | 144° |
| 2026-05-05 18:47 | 52.19277 | -1.43343 | 19524 ft | 423 kts | 141° |
| 2026-05-05 18:47 | 52.17016 | -1.40184 | 19130 ft | 430 kts | 140° |
| 2026-05-05 18:47 | 52.14748 | -1.37005 | 18654 ft | 429 kts | 140° |
| 2026-05-05 18:48 | 52.12491 | -1.33850 | 18193 ft | 426 kts | 140° |
| 2026-05-05 18:48 | 52.10248 | -1.30723 | 17731 ft | 424 kts | 141° |
| 2026-05-05 18:48 | 52.08012 | -1.27612 | 17287 ft | 422 kts | 141° |
| 2026-05-05 18:48 | 52.05785 | -1.24519 | 16863 ft | 419 kts | 140° |
| 2026-05-05 18:49 | 52.03572 | -1.21454 | 16444 ft | 417 kts | 140° |
| 2026-05-05 18:49 | 52.01365 | -1.18409 | 15999 ft | 414 kts | 141° |
| 2026-05-05 18:49 | 51.99171 | -1.15393 | 15649 ft | 409 kts | 141° |
| 2026-05-05 18:49 | 51.97037 | -1.12462 | 15391 ft | 395 kts | 141° |
| 2026-05-05 18:50 | 51.94985 | -1.09645 | 14932 ft | 390 kts | 143° |
| 2026-05-05 18:50 | 51.92905 | -1.06841 | 14267 ft | 389 kts | 141° |
| 2026-05-05 18:50 | 51.90845 | -1.03985 | 13714 ft | 388 kts | 140° |
| 2026-05-05 18:50 | 51.88804 | -1.01148 | 13163 ft | 385 kts | 140° |
| 2026-05-05 18:51 | 51.86793 | -0.98367 | 12816 ft | 370 kts | 141° |
| 2026-05-05 18:51 | 51.85056 | -0.95503 | 12311 ft | 347 kts | 124° |
| 2026-05-05 18:51 | 51.83931 | -0.92179 | 11899 ft | 327 kts | 116° |
| 2026-05-05 18:51 | 51.82982 | -0.88969 | 11571 ft | 307 kts | 115° |
| 2026-05-05 18:52 | 51.82086 | -0.85941 | 11293 ft | 290 kts | 115° |
| 2026-05-05 18:52 | 51.81231 | -0.83089 | 10886 ft | 278 kts | 115° |
| 2026-05-05 18:52 | 51.80391 | -0.80310 | 10398 ft | 273 kts | 115° |
| 2026-05-05 18:52 | 51.79567 | -0.77602 | 9967 ft | 264 kts | 115° |
| 2026-05-05 18:53 | 51.78761 | -0.74964 | 9405 ft | 261 kts | 115° |
| 2026-05-05 18:53 | 51.77957 | -0.72340 | 9015 ft | 261 kts | 115° |
| 2026-05-05 18:53 | 51.77150 | -0.69713 | 8941 ft | 261 kts | 115° |
| 2026-05-05 18:53 | 51.76342 | -0.67090 | 8945 ft | 260 kts | 115° |
| 2026-05-05 18:54 | 51.75535 | -0.64472 | 8948 ft | 260 kts | 115° |
| 2026-05-05 18:54 | 51.74732 | -0.61871 | 8948 ft | 259 kts | 115° |
| 2026-05-05 18:54 | 51.73928 | -0.59271 | 8967 ft | 259 kts | 116° |
| 2026-05-05 18:54 | 51.73006 | -0.56766 | 8975 ft | 260 kts | 130° |
| 2026-05-05 18:55 | 51.71578 | -0.55039 | 8680 ft | 257 kts | 157° |
| 2026-05-05 18:55 | 51.69885 | -0.54252 | 8204 ft | 257 kts | 175° |
| 2026-05-05 18:55 | 51.68105 | -0.54141 | 7964 ft | 256 kts | 184° |
| 2026-05-05 18:55 | 51.66435 | -0.55007 | 7937 ft | 252 kts | 215° |
| 2026-05-05 18:56 | 51.65218 | -0.56976 | 7945 ft | 248 kts | 237° |
| 2026-05-05 18:56 | 51.64269 | -0.59296 | 7938 ft | 249 kts | 240° |
| 2026-05-05 18:56 | 51.63360 | -0.61671 | 7936 ft | 249 kts | 241° |
| 2026-05-05 18:56 | 51.62449 | -0.64059 | 7934 ft | 250 kts | 240° |
| 2026-05-05 18:57 | 51.61544 | -0.66437 | 7904 ft | 248 kts | 240° |
| 2026-05-05 18:57 | 51.60660 | -0.68762 | 7590 ft | 247 kts | 241° |
| 2026-05-05 18:57 | 51.59754 | -0.71155 | 7217 ft | 247 kts | 240° |
| 2026-05-05 18:57 | 51.58866 | -0.73502 | 6752 ft | 244 kts | 241° |
| 2026-05-05 18:58 | 51.57984 | -0.75831 | 6175 ft | 244 kts | 240° |
| 2026-05-05 18:58 | 51.57101 | -0.78172 | 5580 ft | 244 kts | 240° |
| 2026-05-05 18:58 | 51.56031 | -0.80270 | 4904 ft | 246 kts | 218° |
| 2026-05-05 18:58 | 51.54478 | -0.81327 | 4408 ft | 240 kts | 188° |
| 2026-05-05 18:59 | 51.52869 | -0.81555 | 4161 ft | 226 kts | 182° |
| 2026-05-05 18:59 | 51.51326 | -0.81637 | 3847 ft | 217 kts | 181° |
| 2026-05-05 18:59 | 51.49875 | -0.81698 | 3624 ft | 203 kts | 181° |
| 2026-05-05 18:59 | 51.48471 | -0.81749 | 3336 ft | 200 kts | 180° |
| 2026-05-05 19:00 | 51.47144 | -0.81246 | 3054 ft | 196 kts | 146° |
| 2026-05-05 19:00 | 51.46293 | -0.79632 | 3010 ft | 190 kts | 108° |
| 2026-05-05 19:00 | 51.46223 | -0.77621 | 3013 ft | 182 kts | 73° |
| 2026-05-05 19:00 | 51.46680 | -0.75743 | 3012 ft | 181 kts | 62° |
| 2026-05-05 19:01 | 51.47245 | -0.73942 | 3012 ft | 181 kts | 60° |
| 2026-05-05 19:01 | 51.47619 | -0.72002 | 3004 ft | 184 kts | 81° |
| 2026-05-05 19:01 | 51.47672 | -0.69982 | 2808 ft | 180 kts | 88° |
| 2026-05-05 19:01 | 51.47672 | -0.68008 | 2531 ft | 173 kts | 87° |
| 2026-05-05 19:02 | 51.47681 | -0.66145 | 2301 ft | 164 kts | 88° |
| 2026-05-05 19:02 | 51.47689 | -0.64332 | 2073 ft | 161 kts | 87° |
| 2026-05-05 19:02 | 51.47696 | -0.62535 | 1851 ft | 161 kts | 88° |
| 2026-05-05 19:02 | 51.47703 | -0.60752 | 1636 ft | 160 kts | 88° |
| 2026-05-05 19:03 | 51.47709 | -0.59004 | 1410 ft | 152 kts | 88° |
| 2026-05-05 19:03 | 51.47715 | -0.57373 | 1215 ft | 142 kts | 88° |
| 2026-05-05 19:03 | 51.47720 | -0.55824 | 1026 ft | 138 kts | 88° |
| 2026-05-05 19:03 | 51.47716 | -0.54286 | 830 ft | 137 kts | 89° |
| 2026-05-05 19:04 | 51.47722 | -0.52748 | 657 ft | 138 kts | 85° |
| 2026-05-05 19:04 | 51.47747 | -0.51195 | 452 ft | 139 kts | 87° |
| 2026-05-05 19:04 | 51.47745 | -0.49653 | 256 ft | 139 kts | 87° |
| 2026-05-05 19:04 | 51.47758 | -0.48115 | 112 ft | 139 kts | 90° |
| 2026-05-05 19:05 | 51.47755 | -0.46697 | 98 ft | 108 kts | 89° |
| 2026-05-05 19:05 | 51.47758 | -0.45790 | 93 ft | 31 kts | 90° |
| 2026-05-05 19:05 | 51.47758 | -0.45581 | 95 ft | 18 kts | 90° |
| 2026-05-05 19:05 | 51.47761 | -0.45374 | 94 ft | 19 kts | 89° |
| 2026-05-05 19:06 | 51.47729 | -0.45200 | 97 ft | 16 kts | 146° |
| 2026-05-05 19:06 | 51.47622 | -0.45193 | 94 ft | 15 kts | 212° |
| 2026-05-05 19:06 | 51.47597 | -0.45351 | 93 ft | 16 kts | 269° |
| 2026-05-05 19:06 | 51.47595 | -0.45524 | 96 ft | 15 kts | 269° |
| 2026-05-05 19:07 | 51.47594 | -0.45641 | 96 ft | 7 kts | 269° |
| 2026-05-05 19:07 | 51.47594 | -0.45706 | 95 ft | 10 kts | 269° |
| 2026-05-05 19:07 | 51.47594 | -0.45837 | 95 ft | 13 kts | 271° |
| 2026-05-05 19:07 | 51.47596 | -0.46066 | 95 ft | 18 kts | 270° |
| 2026-05-05 19:08 | 51.47596 | -0.46206 | 96 ft | 19 kts | 269° |
| 2026-05-05 19:08 | 51.47595 | -0.46434 | 96 ft | 22 kts | 269° |
| 2026-05-05 19:08 | 51.47593 | -0.46689 | 95 ft | 23 kts | 269° |
| 2026-05-05 19:08 | 51.47573 | -0.46891 | 96 ft | 18 kts | 237° |
| 2026-05-05 19:09 | 51.47459 | -0.46897 | 95 ft | 19 kts | 165° |
| 2026-05-05 19:09 | 51.47320 | -0.46866 | 92 ft | 22 kts | 179° |
| 2026-05-05 19:09 | 51.47163 | -0.46865 | 92 ft | 22 kts | 180° |
| 2026-05-05 19:09 | 51.46999 | -0.46864 | 92 ft | 24 kts | 179° |
| 2026-05-05 19:10 | 51.46848 | -0.46862 | 94 ft | 19 kts | 180° |
| 2026-05-05 19:10 | 51.46751 | -0.46798 | 96 ft | 16 kts | 104° |
| 2026-05-05 19:10 | 51.46749 | -0.46604 | 96 ft | 19 kts | 90° |
| 2026-05-05 19:10 | 51.46748 | -0.46381 | 96 ft | 21 kts | 90° |
| 2026-05-05 19:11 | 51.46748 | -0.46133 | 96 ft | 24 kts | 90° |
| 2026-05-05 19:11 | 51.46748 | -0.45857 | 95 ft | 26 kts | 89° |
| 2026-05-05 19:11 | 51.46750 | -0.45596 | 92 ft | 19 kts | 89° |
| 2026-05-05 19:11 | 51.46750 | -0.45480 | 92 ft | 6 kts | 87° |
| 2026-05-05 19:12 | 51.46768 | -0.45448 | 96 ft | 3 kts | 15° |
| 2026-05-05 19:12 | 51.46801 | -0.45446 | 93 ft | 6 kts | 1° |
| 2026-05-05 19:12 | 51.46835 | -0.45445 | 92 ft | 2 kts | 360° |
| 2026-05-05 19:12 | 51.46841 | -0.45446 | 92 ft | 0 kts | 360° |